sensor_id;sensor_type;location;lat;lon;timestamp;P1;durP1;ratioP1;P2;durP2;ratioP2
77522;SDS011;66637;-29.628;-49.938;2023-05-10T00:02:06;2.72;;;1.23;;
77522;SDS011;66637;-29.628;-49.938;2023-05-10T00:04:38;2.17;;;1.35;;
77522;SDS011;66637;-29.628;-49.938;2023-05-10T00:07:11;3.03;;;1.60;;
77522;SDS011;66637;-29.628;-49.938;2023-05-10T00:09:48;4.82;;;1.38;;
77522;SDS011;66637;-29.628;-49.938;2023-05-10T00:12:28;1.83;;;1.25;;
77522;SDS011;66637;-29.628;-49.938;2023-05-10T00:15:07;4.32;;;1.30;;
77522;SDS011;66637;-29.628;-49.938;2023-05-10T00:17:50;3.25;;;1.50;;
77522;SDS011;66637;-29.628;-49.938;2023-05-10T00:20:44;4.28;;;1.40;;
77522;SDS011;66637;-29.628;-49.938;2023-05-10T00:59:10;3.67;;;1.55;;
77522;SDS011;66637;-29.628;-49.938;2023-05-10T01:01:40;3.80;;;2.20;;
77522;SDS011;66637;-29.628;-49.938;2023-05-10T01:04:11;6.93;;;2.33;;
77522;SDS011;66637;-29.628;-49.938;2023-05-10T01:06:42;5.93;;;2.65;;
77522;SDS011;66637;-29.628;-49.938;2023-05-10T01:09:12;5.72;;;2.83;;
77522;SDS011;66637;-29.628;-49.938;2023-05-10T01:11:43;4.30;;;2.75;;
77522;SDS011;66637;-29.628;-49.938;2023-05-10T01:14:16;6.18;;;2.70;;
77522;SDS011;66637;-29.628;-49.938;2023-05-10T01:16:49;5.38;;;2.53;;
77522;SDS011;66637;-29.628;-49.938;2023-05-10T01:19:24;5.35;;;2.70;;
77522;SDS011;66637;-29.628;-49.938;2023-05-10T01:22:10;4.35;;;2.50;;
77522;SDS011;66637;-29.628;-49.938;2023-05-10T01:24:49;4.72;;;2.70;;
77522;SDS011;66637;-29.628;-49.938;2023-05-10T01:33:47;5.63;;;2.75;;
77522;SDS011;66637;-29.628;-49.938;2023-05-10T01:42:20;4.18;;;2.15;;
77522;SDS011;66637;-29.628;-49.938;2023-05-10T01:45:05;4.53;;;1.92;;
77522;SDS011;66637;-29.628;-49.938;2023-05-10T01:47:54;3.15;;;1.45;;
77522;SDS011;66637;-29.628;-49.938;2023-05-10T01:50:32;4.45;;;1.25;;
77522;SDS011;66637;-29.628;-49.938;2023-05-10T01:53:08;2.90;;;1.42;;
77522;SDS011;66637;-29.628;-49.938;2023-05-10T01:55:51;2.17;;;1.42;;
77522;SDS011;66637;-29.628;-49.938;2023-05-10T01:58:25;2.88;;;1.50;;
77522;SDS011;66637;-29.628;-49.938;2023-05-10T02:01:01;2.10;;;1.40;;
77522;SDS011;66637;-29.628;-49.938;2023-05-10T02:03:33;3.13;;;1.23;;
77522;SDS011;66637;-29.628;-49.938;2023-05-10T02:06:07;3.25;;;1.25;;
77522;SDS011;66637;-29.628;-49.938;2023-05-10T02:08:40;3.97;;;1.40;;
77522;SDS011;66637;-29.628;-49.938;2023-05-10T02:11:13;3.40;;;1.17;;
77522;SDS011;66637;-29.628;-49.938;2023-05-10T02:13:44;2.30;;;1.05;;
77522;SDS011;66637;-29.628;-49.938;2023-05-10T02:16:17;2.42;;;1.30;;
77522;SDS011;66637;-29.628;-49.938;2023-05-10T02:18:53;2.58;;;1.15;;
77522;SDS011;66637;-29.628;-49.938;2023-05-10T02:21:24;3.85;;;1.08;;
77522;SDS011;66637;-29.628;-49.938;2023-05-10T02:23:58;3.30;;;1.20;;
77522;SDS011;66637;-29.628;-49.938;2023-05-10T02:26:31;1.40;;;1.00;;
77522;SDS011;66637;-29.628;-49.938;2023-05-10T02:29:04;2.05;;;1.02;;
77522;SDS011;66637;-29.628;-49.938;2023-05-10T02:31:36;3.42;;;1.30;;
77522;SDS011;66637;-29.628;-49.938;2023-05-10T02:34:08;2.05;;;1.10;;
77522;SDS011;66637;-29.628;-49.938;2023-05-10T02:36:40;5.40;;;1.20;;
77522;SDS011;66637;-29.628;-49.938;2023-05-10T02:39:12;2.25;;;1.13;;
77522;SDS011;66637;-29.628;-49.938;2023-05-10T02:41:44;3.70;;;1.30;;
77522;SDS011;66637;-29.628;-49.938;2023-05-10T02:44:17;4.47;;;1.20;;
77522;SDS011;66637;-29.628;-49.938;2023-05-10T02:46:49;1.55;;;1.20;;
77522;SDS011;66637;-29.628;-49.938;2023-05-10T02:49:19;2.22;;;1.27;;
77522;SDS011;66637;-29.628;-49.938;2023-05-10T02:51:51;3.97;;;1.58;;
77522;SDS011;66637;-29.628;-49.938;2023-05-10T02:54:31;2.70;;;1.17;;
77522;SDS011;66637;-29.628;-49.938;2023-05-10T02:57:05;2.47;;;1.20;;
77522;SDS011;66637;-29.628;-49.938;2023-05-10T02:59:37;2.70;;;1.25;;
77522;SDS011;66637;-29.628;-49.938;2023-05-10T03:02:08;4.38;;;1.48;;
77522;SDS011;66637;-29.628;-49.938;2023-05-10T03:04:40;3.17;;;1.20;;
77522;SDS011;66637;-29.628;-49.938;2023-05-10T03:07:11;3.47;;;1.38;;
77522;SDS011;66637;-29.628;-49.938;2023-05-10T03:09:41;2.13;;;1.23;;
77522;SDS011;66637;-29.628;-49.938;2023-05-10T03:15:32;4.20;;;1.20;;
77522;SDS011;66637;-29.628;-49.938;2023-05-10T03:18:33;3.08;;;1.30;;
77522;SDS011;66637;-29.628;-49.938;2023-05-10T03:21:22;2.47;;;1.20;;
77522;SDS011;66637;-29.628;-49.938;2023-05-10T03:26:37;4.07;;;1.60;;
77522;SDS011;66637;-29.628;-49.938;2023-05-10T03:29:14;4.28;;;1.25;;
77522;SDS011;66637;-29.628;-49.938;2023-05-10T03:31:46;2.03;;;1.33;;
77522;SDS011;66637;-29.628;-49.938;2023-05-10T03:34:18;2.95;;;1.02;;
77522;SDS011;66637;-29.628;-49.938;2023-05-10T03:36:54;1.92;;;1.13;;
77522;SDS011;66637;-29.628;-49.938;2023-05-10T03:39:26;3.40;;;1.10;;
77522;SDS011;66637;-29.628;-49.938;2023-05-10T03:41:58;3.08;;;1.40;;
77522;SDS011;66637;-29.628;-49.938;2023-05-10T03:44:30;2.67;;;1.08;;
77522;SDS011;66637;-29.628;-49.938;2023-05-10T03:47:02;1.83;;;1.20;;
77522;SDS011;66637;-29.628;-49.938;2023-05-10T03:49:32;2.45;;;1.23;;
77522;SDS011;66637;-29.628;-49.938;2023-05-10T03:52:03;5.68;;;1.30;;
77522;SDS011;66637;-29.628;-49.938;2023-05-10T03:54:34;2.65;;;1.30;;
77522;SDS011;66637;-29.628;-49.938;2023-05-10T03:57:05;3.67;;;1.40;;
77522;SDS011;66637;-29.628;-49.938;2023-05-10T03:59:35;1.77;;;1.30;;
77522;SDS011;66637;-29.628;-49.938;2023-05-10T04:02:06;2.55;;;1.33;;
77522;SDS011;66637;-29.628;-49.938;2023-05-10T04:04:36;2.92;;;1.30;;
77522;SDS011;66637;-29.628;-49.938;2023-05-10T04:07:08;1.85;;;1.23;;
77522;SDS011;66637;-29.628;-49.938;2023-05-10T04:09:39;2.28;;;1.35;;
77522;SDS011;66637;-29.628;-49.938;2023-05-10T04:12:11;4.45;;;1.52;;
77522;SDS011;66637;-29.628;-49.938;2023-05-10T04:14:41;1.65;;;1.20;;
77522;SDS011;66637;-29.628;-49.938;2023-05-10T04:17:11;3.97;;;1.58;;
77522;SDS011;66637;-29.628;-49.938;2023-05-10T04:19:42;1.65;;;1.10;;
77522;SDS011;66637;-29.628;-49.938;2023-05-10T04:22:14;2.60;;;1.40;;
77522;SDS011;66637;-29.628;-49.938;2023-05-10T04:24:45;1.90;;;1.20;;
77522;SDS011;66637;-29.628;-49.938;2023-05-10T04:27:15;2.63;;;1.27;;
77522;SDS011;66637;-29.628;-49.938;2023-05-10T04:29:46;3.38;;;1.40;;
77522;SDS011;66637;-29.628;-49.938;2023-05-10T04:32:17;2.20;;;1.30;;
77522;SDS011;66637;-29.628;-49.938;2023-05-10T04:34:49;1.70;;;1.20;;
77522;SDS011;66637;-29.628;-49.938;2023-05-10T04:37:23;2.35;;;1.35;;
77522;SDS011;66637;-29.628;-49.938;2023-05-10T04:39:53;3.20;;;1.40;;
77522;SDS011;66637;-29.628;-49.938;2023-05-10T04:42:24;1.30;;;1.10;;
77522;SDS011;66637;-29.628;-49.938;2023-05-10T04:44:57;3.80;;;1.20;;
77522;SDS011;66637;-29.628;-49.938;2023-05-10T04:47:29;1.85;;;1.25;;
77522;SDS011;66637;-29.628;-49.938;2023-05-10T04:50:00;3.25;;;1.38;;
77522;SDS011;66637;-29.628;-49.938;2023-05-10T04:52:30;1.85;;;1.27;;
77522;SDS011;66637;-29.628;-49.938;2023-05-10T04:55:01;4.10;;;1.42;;
77522;SDS011;66637;-29.628;-49.938;2023-05-10T04:57:32;3.33;;;1.45;;
77522;SDS011;66637;-29.628;-49.938;2023-05-10T05:00:04;1.83;;;1.05;;
77522;SDS011;66637;-29.628;-49.938;2023-05-10T05:02:36;5.75;;;1.40;;
77522;SDS011;66637;-29.628;-49.938;2023-05-10T05:05:07;1.58;;;1.17;;
77522;SDS011;66637;-29.628;-49.938;2023-05-10T05:07:38;5.45;;;1.38;;
77522;SDS011;66637;-29.628;-49.938;2023-05-10T05:10:09;2.38;;;1.23;;
77522;SDS011;66637;-29.628;-49.938;2023-05-10T05:12:40;4.72;;;1.60;;
77522;SDS011;66637;-29.628;-49.938;2023-05-10T05:15:10;2.53;;;1.30;;
77522;SDS011;66637;-29.628;-49.938;2023-05-10T05:17:41;4.70;;;1.77;;
77522;SDS011;66637;-29.628;-49.938;2023-05-10T05:20:12;2.65;;;1.52;;
77522;SDS011;66637;-29.628;-49.938;2023-05-10T05:22:44;3.85;;;1.45;;
77522;SDS011;66637;-29.628;-49.938;2023-05-10T05:25:15;3.28;;;1.70;;
77522;SDS011;66637;-29.628;-49.938;2023-05-10T05:27:46;2.45;;;1.60;;
77522;SDS011;66637;-29.628;-49.938;2023-05-10T05:30:16;2.65;;;1.40;;
77522;SDS011;66637;-29.628;-49.938;2023-05-10T05:32:48;2.53;;;1.50;;
77522;SDS011;66637;-29.628;-49.938;2023-05-10T05:35:18;2.75;;;1.42;;
77522;SDS011;66637;-29.628;-49.938;2023-05-10T05:37:48;2.25;;;1.55;;
77522;SDS011;66637;-29.628;-49.938;2023-05-10T05:40:18;2.00;;;1.35;;
77522;SDS011;66637;-29.628;-49.938;2023-05-10T05:42:50;3.20;;;1.60;;
77522;SDS011;66637;-29.628;-49.938;2023-05-10T05:45:21;2.72;;;1.45;;
77522;SDS011;66637;-29.628;-49.938;2023-05-10T05:47:53;2.95;;;1.60;;
77522;SDS011;66637;-29.628;-49.938;2023-05-10T05:50:23;4.10;;;1.60;;
77522;SDS011;66637;-29.628;-49.938;2023-05-10T05:52:54;4.35;;;1.38;;
77522;SDS011;66637;-29.628;-49.938;2023-05-10T05:55:24;3.75;;;1.70;;
77522;SDS011;66637;-29.628;-49.938;2023-05-10T05:57:55;4.25;;;1.30;;
77522;SDS011;66637;-29.628;-49.938;2023-05-10T06:00:27;3.50;;;1.60;;
77522;SDS011;66637;-29.628;-49.938;2023-05-10T06:02:58;4.03;;;1.40;;
77522;SDS011;66637;-29.628;-49.938;2023-05-10T06:05:29;2.15;;;1.65;;
77522;SDS011;66637;-29.628;-49.938;2023-05-10T06:08:00;4.38;;;1.50;;
77522;SDS011;66637;-29.628;-49.938;2023-05-10T06:10:30;4.20;;;1.58;;
77522;SDS011;66637;-29.628;-49.938;2023-05-10T06:13:02;2.85;;;1.15;;
77522;SDS011;66637;-29.628;-49.938;2023-05-10T06:15:33;2.92;;;1.40;;
77522;SDS011;66637;-29.628;-49.938;2023-05-10T06:18:04;2.97;;;1.60;;
77522;SDS011;66637;-29.628;-49.938;2023-05-10T06:20:34;2.97;;;1.40;;
77522;SDS011;66637;-29.628;-49.938;2023-05-10T06:23:05;2.35;;;1.50;;
77522;SDS011;66637;-29.628;-49.938;2023-05-10T06:25:37;2.38;;;1.48;;
77522;SDS011;66637;-29.628;-49.938;2023-05-10T06:28:08;3.33;;;1.58;;
77522;SDS011;66637;-29.628;-49.938;2023-05-10T06:30:39;5.75;;;1.90;;
77522;SDS011;66637;-29.628;-49.938;2023-05-10T06:33:10;4.18;;;1.52;;
77522;SDS011;66637;-29.628;-49.938;2023-05-10T06:35:42;2.83;;;1.40;;
77522;SDS011;66637;-29.628;-49.938;2023-05-10T06:38:12;3.63;;;1.60;;
77522;SDS011;66637;-29.628;-49.938;2023-05-10T06:40:43;3.33;;;1.50;;
77522;SDS011;66637;-29.628;-49.938;2023-05-10T06:43:13;3.05;;;1.67;;
77522;SDS011;66637;-29.628;-49.938;2023-05-10T06:45:45;1.85;;;1.50;;
77522;SDS011;66637;-29.628;-49.938;2023-05-10T06:48:17;2.70;;;1.25;;
77522;SDS011;66637;-29.628;-49.938;2023-05-10T06:50:47;3.17;;;1.60;;
77522;SDS011;66637;-29.628;-49.938;2023-05-10T06:53:17;2.20;;;1.50;;
77522;SDS011;66637;-29.628;-49.938;2023-05-10T06:55:48;2.95;;;1.70;;
77522;SDS011;66637;-29.628;-49.938;2023-05-10T06:58:19;3.25;;;1.55;;
77522;SDS011;66637;-29.628;-49.938;2023-05-10T07:00:50;2.00;;;1.45;;
77522;SDS011;66637;-29.628;-49.938;2023-05-10T07:03:20;4.18;;;1.48;;
77522;SDS011;66637;-29.628;-49.938;2023-05-10T07:05:50;3.22;;;1.35;;
77522;SDS011;66637;-29.628;-49.938;2023-05-10T07:08:21;2.05;;;1.25;;
77522;SDS011;66637;-29.628;-49.938;2023-05-10T07:10:51;4.30;;;1.50;;
77522;SDS011;66637;-29.628;-49.938;2023-05-10T07:13:22;5.80;;;1.50;;
77522;SDS011;66637;-29.628;-49.938;2023-05-10T07:15:52;3.92;;;1.30;;
77522;SDS011;66637;-29.628;-49.938;2023-05-10T07:18:22;1.92;;;1.33;;
77522;SDS011;66637;-29.628;-49.938;2023-05-10T07:20:54;6.82;;;1.50;;
77522;SDS011;66637;-29.628;-49.938;2023-05-10T07:23:25;3.75;;;1.30;;
77522;SDS011;66637;-29.628;-49.938;2023-05-10T07:25:56;1.80;;;1.27;;
77522;SDS011;66637;-29.628;-49.938;2023-05-10T07:28:26;2.97;;;1.42;;
77522;SDS011;66637;-29.628;-49.938;2023-05-10T07:30:57;2.03;;;1.20;;
77522;SDS011;66637;-29.628;-49.938;2023-05-10T07:33:28;3.22;;;1.40;;
77522;SDS011;66637;-29.628;-49.938;2023-05-10T07:35:59;2.38;;;1.13;;
77522;SDS011;66637;-29.628;-49.938;2023-05-10T07:38:30;2.95;;;1.38;;
77522;SDS011;66637;-29.628;-49.938;2023-05-10T07:41:00;2.40;;;1.25;;
77522;SDS011;66637;-29.628;-49.938;2023-05-10T07:43:30;2.35;;;1.30;;
77522;SDS011;66637;-29.628;-49.938;2023-05-10T07:46:00;2.63;;;1.40;;
77522;SDS011;66637;-29.628;-49.938;2023-05-10T07:48:31;2.63;;;1.45;;
77522;SDS011;66637;-29.628;-49.938;2023-05-10T07:51:02;1.95;;;1.40;;
77522;SDS011;66637;-29.628;-49.938;2023-05-10T07:53:33;2.22;;;1.48;;
77522;SDS011;66637;-29.628;-49.938;2023-05-10T07:58:53;3.10;;;1.42;;
77522;SDS011;66637;-29.628;-49.938;2023-05-10T08:01:25;3.85;;;1.50;;
77522;SDS011;66637;-29.628;-49.938;2023-05-10T08:03:56;3.90;;;1.23;;
77522;SDS011;66637;-29.628;-49.938;2023-05-10T08:06:26;2.40;;;1.15;;
77522;SDS011;66637;-29.628;-49.938;2023-05-10T08:09:00;2.63;;;1.58;;
77522;SDS011;66637;-29.628;-49.938;2023-05-10T08:11:31;4.15;;;1.50;;
77522;SDS011;66637;-29.628;-49.938;2023-05-10T08:14:05;6.72;;;1.70;;
77522;SDS011;66637;-29.628;-49.938;2023-05-10T08:16:36;2.67;;;1.60;;
77522;SDS011;66637;-29.628;-49.938;2023-05-10T08:19:07;2.45;;;1.92;;
77522;SDS011;66637;-29.628;-49.938;2023-05-10T08:21:38;3.72;;;1.58;;
77522;SDS011;66637;-29.628;-49.938;2023-05-10T08:24:09;2.85;;;1.30;;
77522;SDS011;66637;-29.628;-49.938;2023-05-10T08:26:39;3.83;;;1.50;;
77522;SDS011;66637;-29.628;-49.938;2023-05-10T08:29:10;3.97;;;1.50;;
77522;SDS011;66637;-29.628;-49.938;2023-05-10T08:31:41;2.25;;;1.40;;
77522;SDS011;66637;-29.628;-49.938;2023-05-10T08:34:11;2.42;;;1.38;;
77522;SDS011;66637;-29.628;-49.938;2023-05-10T08:36:43;2.17;;;1.35;;
77522;SDS011;66637;-29.628;-49.938;2023-05-10T08:39:13;2.03;;;1.35;;
77522;SDS011;66637;-29.628;-49.938;2023-05-10T08:41:57;2.63;;;1.33;;
77522;SDS011;66637;-29.628;-49.938;2023-05-10T08:44:35;2.08;;;1.33;;
77522;SDS011;66637;-29.628;-49.938;2023-05-10T08:47:06;7.65;;;1.63;;
77522;SDS011;66637;-29.628;-49.938;2023-05-10T08:49:38;3.45;;;1.50;;
77522;SDS011;66637;-29.628;-49.938;2023-05-10T08:52:09;2.60;;;1.38;;
77522;SDS011;66637;-29.628;-49.938;2023-05-10T08:54:43;2.33;;;1.35;;
77522;SDS011;66637;-29.628;-49.938;2023-05-10T08:57:14;4.63;;;1.40;;
77522;SDS011;66637;-29.628;-49.938;2023-05-10T08:59:44;2.67;;;1.45;;
77522;SDS011;66637;-29.628;-49.938;2023-05-10T09:02:15;3.88;;;1.40;;
77522;SDS011;66637;-29.628;-49.938;2023-05-10T09:04:48;1.50;;;1.30;;
77522;SDS011;66637;-29.628;-49.938;2023-05-10T09:07:19;2.85;;;1.60;;
77522;SDS011;66637;-29.628;-49.938;2023-05-10T09:09:52;4.13;;;1.55;;
77522;SDS011;66637;-29.628;-49.938;2023-05-10T09:12:24;2.20;;;1.42;;
77522;SDS011;66637;-29.628;-49.938;2023-05-10T09:14:56;1.92;;;1.23;;
77522;SDS011;66637;-29.628;-49.938;2023-05-10T09:17:30;2.63;;;1.45;;
77522;SDS011;66637;-29.628;-49.938;2023-05-10T09:20:00;3.28;;;1.50;;
77522;SDS011;66637;-29.628;-49.938;2023-05-10T09:22:34;3.80;;;1.67;;
77522;SDS011;66637;-29.628;-49.938;2023-05-10T09:27:46;4.97;;;1.38;;
77522;SDS011;66637;-29.628;-49.938;2023-05-10T09:30:27;1.83;;;1.38;;
77522;SDS011;66637;-29.628;-49.938;2023-05-10T09:32:59;2.20;;;1.50;;
77522;SDS011;66637;-29.628;-49.938;2023-05-10T09:35:31;3.15;;;1.38;;
77522;SDS011;66637;-29.628;-49.938;2023-05-10T09:38:03;2.53;;;1.40;;
77522;SDS011;66637;-29.628;-49.938;2023-05-10T09:40:34;3.78;;;1.30;;
77522;SDS011;66637;-29.628;-49.938;2023-05-10T09:43:06;3.50;;;1.52;;
77522;SDS011;66637;-29.628;-49.938;2023-05-10T09:45:37;3.10;;;1.83;;
77522;SDS011;66637;-29.628;-49.938;2023-05-10T09:48:14;3.38;;;1.60;;
77522;SDS011;66637;-29.628;-49.938;2023-05-10T09:50:46;3.95;;;1.55;;
77522;SDS011;66637;-29.628;-49.938;2023-05-10T09:53:26;3.40;;;1.90;;
77522;SDS011;66637;-29.628;-49.938;2023-05-10T09:55:57;3.67;;;2.15;;
77522;SDS011;66637;-29.628;-49.938;2023-05-10T09:58:28;2.35;;;1.70;;
77522;SDS011;66637;-29.628;-49.938;2023-05-10T10:00:59;2.67;;;1.75;;
77522;SDS011;66637;-29.628;-49.938;2023-05-10T10:03:31;1.70;;;1.42;;
77522;SDS011;66637;-29.628;-49.938;2023-05-10T10:06:02;2.90;;;1.33;;
77522;SDS011;66637;-29.628;-49.938;2023-05-10T10:08:49;2.40;;;1.42;;
77522;SDS011;66637;-29.628;-49.938;2023-05-10T10:11:23;2.78;;;1.58;;
77522;SDS011;66637;-29.628;-49.938;2023-05-10T10:13:53;2.83;;;1.80;;
77522;SDS011;66637;-29.628;-49.938;2023-05-10T10:16:26;2.22;;;1.65;;
77522;SDS011;66637;-29.628;-49.938;2023-05-10T10:18:59;3.47;;;1.67;;
77522;SDS011;66637;-29.628;-49.938;2023-05-10T10:21:31;2.65;;;1.45;;
77522;SDS011;66637;-29.628;-49.938;2023-05-10T10:24:03;3.47;;;1.40;;
77522;SDS011;66637;-29.628;-49.938;2023-05-10T10:26:35;2.03;;;1.45;;
77522;SDS011;66637;-29.628;-49.938;2023-05-10T10:29:18;3.47;;;1.42;;
77522;SDS011;66637;-29.628;-49.938;2023-05-10T10:34:55;2.35;;;1.40;;
77522;SDS011;66637;-29.628;-49.938;2023-05-10T10:37:40;3.30;;;1.50;;
77522;SDS011;66637;-29.628;-49.938;2023-05-10T10:48:49;1.30;;;1.10;;
77522;SDS011;66637;-29.628;-49.938;2023-05-10T10:51:38;2.00;;;1.20;;
77522;SDS011;66637;-29.628;-49.938;2023-05-10T10:54:09;2.25;;;1.30;;
77522;SDS011;66637;-29.628;-49.938;2023-05-10T10:56:41;1.80;;;1.15;;
77522;SDS011;66637;-29.628;-49.938;2023-05-10T10:59:26;1.30;;;1.10;;
77522;SDS011;66637;-29.628;-49.938;2023-05-10T11:01:57;1.95;;;1.20;;
77522;SDS011;66637;-29.628;-49.938;2023-05-10T11:04:29;3.88;;;1.30;;
77522;SDS011;66637;-29.628;-49.938;2023-05-10T11:07:16;1.92;;;1.15;;
77522;SDS011;66637;-29.628;-49.938;2023-05-10T11:09:49;4.45;;;1.70;;
77522;SDS011;66637;-29.628;-49.938;2023-05-10T11:12:20;3.80;;;1.48;;
77522;SDS011;66637;-29.628;-49.938;2023-05-10T11:14:51;5.05;;;1.60;;
77522;SDS011;66637;-29.628;-49.938;2023-05-10T11:17:23;4.97;;;1.40;;
77522;SDS011;66637;-29.628;-49.938;2023-05-10T11:20:13;2.70;;;1.50;;
77522;SDS011;66637;-29.628;-49.938;2023-05-10T11:22:51;1.42;;;1.13;;
77522;SDS011;66637;-29.628;-49.938;2023-05-10T11:25:27;2.10;;;1.40;;
77522;SDS011;66637;-29.628;-49.938;2023-05-10T11:27:58;3.60;;;1.20;;
77522;SDS011;66637;-29.628;-49.938;2023-05-10T11:30:35;3.58;;;1.60;;
77522;SDS011;66637;-29.628;-49.938;2023-05-10T11:33:07;3.05;;;1.80;;
77522;SDS011;66637;-29.628;-49.938;2023-05-10T11:35:39;2.30;;;1.60;;
77522;SDS011;66637;-29.628;-49.938;2023-05-10T11:38:11;2.50;;;1.60;;
77522;SDS011;66637;-29.628;-49.938;2023-05-10T11:40:44;3.97;;;1.50;;
77522;SDS011;66637;-29.628;-49.938;2023-05-10T11:43:14;1.52;;;1.33;;
77522;SDS011;66637;-29.628;-49.938;2023-05-10T11:45:45;2.70;;;1.25;;
77522;SDS011;66637;-29.628;-49.938;2023-05-10T11:48:15;4.03;;;1.42;;
77522;SDS011;66637;-29.628;-49.938;2023-05-10T11:50:51;3.08;;;1.40;;
77522;SDS011;66637;-29.628;-49.938;2023-05-10T11:53:31;3.15;;;1.33;;
77522;SDS011;66637;-29.628;-49.938;2023-05-10T11:56:07;2.95;;;1.35;;
77522;SDS011;66637;-29.628;-49.938;2023-05-10T11:58:38;2.90;;;1.35;;
77522;SDS011;66637;-29.628;-49.938;2023-05-10T12:01:10;2.10;;;1.38;;
77522;SDS011;66637;-29.628;-49.938;2023-05-10T12:03:42;7.97;;;1.20;;
77522;SDS011;66637;-29.628;-49.938;2023-05-10T12:06:12;3.10;;;1.20;;
77522;SDS011;66637;-29.628;-49.938;2023-05-10T12:08:46;2.53;;;1.25;;
77522;SDS011;66637;-29.628;-49.938;2023-05-10T12:11:24;3.28;;;1.20;;
77522;SDS011;66637;-29.628;-49.938;2023-05-10T12:13:55;2.53;;;1.23;;
77522;SDS011;66637;-29.628;-49.938;2023-05-10T12:16:28;2.83;;;1.20;;
77522;SDS011;66637;-29.628;-49.938;2023-05-10T12:18:59;2.75;;;1.35;;
77522;SDS011;66637;-29.628;-49.938;2023-05-10T12:21:30;2.53;;;1.10;;
77522;SDS011;66637;-29.628;-49.938;2023-05-10T12:24:02;3.00;;;1.05;;
77522;SDS011;66637;-29.628;-49.938;2023-05-10T12:26:34;3.97;;;1.27;;
77522;SDS011;66637;-29.628;-49.938;2023-05-10T12:29:15;4.15;;;1.40;;
77522;SDS011;66637;-29.628;-49.938;2023-05-10T12:31:52;3.15;;;1.10;;
77522;SDS011;66637;-29.628;-49.938;2023-05-10T12:34:29;2.83;;;1.20;;
77522;SDS011;66637;-29.628;-49.938;2023-05-10T12:37:01;2.72;;;1.13;;
77522;SDS011;66637;-29.628;-49.938;2023-05-10T12:39:43;3.13;;;1.48;;
77522;SDS011;66637;-29.628;-49.938;2023-05-10T12:42:15;2.47;;;1.15;;
77522;SDS011;66637;-29.628;-49.938;2023-05-10T12:44:46;1.80;;;1.00;;
77522;SDS011;66637;-29.628;-49.938;2023-05-10T12:47:17;1.73;;;1.10;;
77522;SDS011;66637;-29.628;-49.938;2023-05-10T12:49:48;2.35;;;1.00;;
77522;SDS011;66637;-29.628;-49.938;2023-05-10T12:52:19;2.38;;;1.15;;
77522;SDS011;66637;-29.628;-49.938;2023-05-10T12:54:51;2.65;;;1.23;;
77522;SDS011;66637;-29.628;-49.938;2023-05-10T12:57:23;2.97;;;1.10;;
77522;SDS011;66637;-29.628;-49.938;2023-05-10T12:59:54;2.65;;;1.73;;
77522;SDS011;66637;-29.628;-49.938;2023-05-10T13:02:24;4.25;;;1.48;;
77522;SDS011;66637;-29.628;-49.938;2023-05-10T13:04:56;3.20;;;1.50;;
77522;SDS011;66637;-29.628;-49.938;2023-05-10T13:07:27;2.47;;;1.15;;
77522;SDS011;66637;-29.628;-49.938;2023-05-10T13:09:58;3.05;;;1.30;;
77522;SDS011;66637;-29.628;-49.938;2023-05-10T13:12:28;4.68;;;1.58;;
77522;SDS011;66637;-29.628;-49.938;2023-05-10T13:15:00;2.58;;;1.20;;
77522;SDS011;66637;-29.628;-49.938;2023-05-10T13:17:32;3.05;;;1.45;;
77522;SDS011;66637;-29.628;-49.938;2023-05-10T13:20:02;2.05;;;1.25;;
77522;SDS011;66637;-29.628;-49.938;2023-05-10T13:22:32;3.92;;;1.50;;
77522;SDS011;66637;-29.628;-49.938;2023-05-10T13:25:07;2.17;;;1.17;;
77522;SDS011;66637;-29.628;-49.938;2023-05-10T13:27:38;2.83;;;1.70;;
77522;SDS011;66637;-29.628;-49.938;2023-05-10T13:30:10;2.00;;;1.13;;
77522;SDS011;66637;-29.628;-49.938;2023-05-10T13:32:41;4.45;;;1.30;;
77522;SDS011;66637;-29.628;-49.938;2023-05-10T13:35:11;2.47;;;1.05;;
77522;SDS011;66637;-29.628;-49.938;2023-05-10T13:37:41;3.70;;;1.23;;
77522;SDS011;66637;-29.628;-49.938;2023-05-10T13:40:13;3.67;;;1.20;;
77522;SDS011;66637;-29.628;-49.938;2023-05-10T13:42:45;3.08;;;1.15;;
77522;SDS011;66637;-29.628;-49.938;2023-05-10T13:45:15;3.25;;;1.00;;
77522;SDS011;66637;-29.628;-49.938;2023-05-10T13:47:47;5.95;;;1.35;;
77522;SDS011;66637;-29.628;-49.938;2023-05-10T13:50:17;3.35;;;1.25;;
77522;SDS011;66637;-29.628;-49.938;2023-05-10T13:52:48;2.88;;;1.20;;
77522;SDS011;66637;-29.628;-49.938;2023-05-10T13:55:19;2.13;;;0.85;;
77522;SDS011;66637;-29.628;-49.938;2023-05-10T13:57:51;2.20;;;1.15;;
77522;SDS011;66637;-29.628;-49.938;2023-05-10T14:00:22;5.60;;;1.38;;
77522;SDS011;66637;-29.628;-49.938;2023-05-10T14:02:58;1.60;;;1.10;;
77522;SDS011;66637;-29.628;-49.938;2023-05-10T14:05:29;1.58;;;1.00;;
77522;SDS011;66637;-29.628;-49.938;2023-05-10T14:08:00;2.08;;;1.10;;
77522;SDS011;66637;-29.628;-49.938;2023-05-10T14:10:31;2.50;;;1.20;;
77522;SDS011;66637;-29.628;-49.938;2023-05-10T14:13:02;1.67;;;0.93;;
77522;SDS011;66637;-29.628;-49.938;2023-05-10T14:15:33;2.13;;;1.30;;
77522;SDS011;66637;-29.628;-49.938;2023-05-10T14:18:03;3.53;;;1.00;;
77522;SDS011;66637;-29.628;-49.938;2023-05-10T14:20:33;1.60;;;1.17;;
77522;SDS011;66637;-29.628;-49.938;2023-05-10T14:23:05;2.15;;;1.08;;
77522;SDS011;66637;-29.628;-49.938;2023-05-10T14:25:41;3.30;;;1.33;;
77522;SDS011;66637;-29.628;-49.938;2023-05-10T14:28:11;3.63;;;1.17;;
77522;SDS011;66637;-29.628;-49.938;2023-05-10T14:30:41;3.20;;;1.30;;
77522;SDS011;66637;-29.628;-49.938;2023-05-10T14:33:12;2.20;;;1.30;;
77522;SDS011;66637;-29.628;-49.938;2023-05-10T14:35:44;2.50;;;1.30;;
77522;SDS011;66637;-29.628;-49.938;2023-05-10T14:38:16;8.45;;;1.83;;
77522;SDS011;66637;-29.628;-49.938;2023-05-10T14:40:47;2.92;;;1.40;;
77522;SDS011;66637;-29.628;-49.938;2023-05-10T14:43:17;2.60;;;1.30;;
77522;SDS011;66637;-29.628;-49.938;2023-05-10T14:45:47;2.58;;;1.42;;
77522;SDS011;66637;-29.628;-49.938;2023-05-10T14:48:17;5.28;;;1.40;;
77522;SDS011;66637;-29.628;-49.938;2023-05-10T14:50:47;3.97;;;1.42;;
77522;SDS011;66637;-29.628;-49.938;2023-05-10T14:53:19;2.60;;;1.52;;
77522;SDS011;66637;-29.628;-49.938;2023-05-10T14:55:49;20.55;;;2.60;;
77522;SDS011;66637;-29.628;-49.938;2023-05-10T14:58:20;36.30;;;4.85;;
77522;SDS011;66637;-29.628;-49.938;2023-05-10T15:00:53;11.82;;;2.00;;
77522;SDS011;66637;-29.628;-49.938;2023-05-10T15:03:25;3.78;;;1.50;;
77522;SDS011;66637;-29.628;-49.938;2023-05-10T15:05:57;2.72;;;1.40;;
77522;SDS011;66637;-29.628;-49.938;2023-05-10T15:08:27;3.78;;;1.67;;
77522;SDS011;66637;-29.628;-49.938;2023-05-10T15:11:06;3.78;;;1.42;;
77522;SDS011;66637;-29.628;-49.938;2023-05-10T15:13:52;3.13;;;1.48;;
77522;SDS011;66637;-29.628;-49.938;2023-05-10T15:16:23;4.65;;;1.42;;
77522;SDS011;66637;-29.628;-49.938;2023-05-10T15:19:03;3.25;;;1.33;;
77522;SDS011;66637;-29.628;-49.938;2023-05-10T15:21:38;5.35;;;1.67;;
77522;SDS011;66637;-29.628;-49.938;2023-05-10T15:24:26;3.35;;;1.25;;
77522;SDS011;66637;-29.628;-49.938;2023-05-10T15:27:08;4.45;;;1.60;;
77522;SDS011;66637;-29.628;-49.938;2023-05-10T15:29:39;2.17;;;1.55;;
77522;SDS011;66637;-29.628;-49.938;2023-05-10T15:32:09;2.20;;;1.25;;
77522;SDS011;66637;-29.628;-49.938;2023-05-10T15:34:40;5.43;;;1.30;;
77522;SDS011;66637;-29.628;-49.938;2023-05-10T15:37:27;2.78;;;1.10;;
77522;SDS011;66637;-29.628;-49.938;2023-05-10T15:40:14;2.92;;;1.02;;
77522;SDS011;66637;-29.628;-49.938;2023-05-10T15:42:52;29.50;;;3.33;;
77522;SDS011;66637;-29.628;-49.938;2023-05-10T15:45:25;22.48;;;3.53;;
77522;SDS011;66637;-29.628;-49.938;2023-05-10T15:48:06;23.75;;;4.55;;
77522;SDS011;66637;-29.628;-49.938;2023-05-10T15:50:43;5.68;;;1.70;;
77522;SDS011;66637;-29.628;-49.938;2023-05-10T15:53:18;3.38;;;0.90;;